sensor_id;sensor_type;location;lat;lon;timestamp;pressure;altitude;pressure_sealevel;temperature;humidity
46710;BME280;32442;51.514;-0.178;2023-02-16T00:01:38;101981.25;;;18.94;45.48
46710;BME280;32442;51.514;-0.178;2023-02-16T00:06:35;101989.06;;;18.92;45.71
46710;BME280;32442;51.514;-0.178;2023-02-16T00:09:02;101981.47;;;18.87;45.76
46710;BME280;32442;51.514;-0.178;2023-02-16T00:11:30;101988.75;;;18.88;45.84
46710;BME280;32442;51.514;-0.178;2023-02-16T00:14:02;101988.75;;;18.88;45.85
46710;BME280;32442;51.514;-0.178;2023-02-16T00:16:28;101983.41;;;18.87;45.78
46710;BME280;32442;51.514;-0.178;2023-02-16T00:18:55;101972.22;;;18.87;45.52
46710;BME280;32442;51.514;-0.178;2023-02-16T00:21:22;101981.72;;;18.86;45.60
46710;BME280;32442;51.514;-0.178;2023-02-16T00:23:49;101967.47;;;18.87;45.49
46710;BME280;32442;51.514;-0.178;2023-02-16T00:26:17;101970.81;;;18.84;45.46
46710;BME280;32442;51.514;-0.178;2023-02-16T00:28:45;101969.44;;;18.87;45.59
46710;BME280;32442;51.514;-0.178;2023-02-16T00:33:43;101966.03;;;18.80;45.79
46710;BME280;32442;51.514;-0.178;2023-02-16T00:36:10;101966.88;;;18.80;45.58
46710;BME280;32442;51.514;-0.178;2023-02-16T00:38:37;101966.34;;;18.83;45.42
46710;BME280;32442;51.514;-0.178;2023-02-16T00:41:04;101972.50;;;18.80;45.25
46710;BME280;32442;51.514;-0.178;2023-02-16T00:43:31;101962.41;;;18.79;45.15
46710;BME280;32442;51.514;-0.178;2023-02-16T00:45:58;101960.44;;;18.80;45.12
46710;BME280;32442;51.514;-0.178;2023-02-16T00:48:25;101968.00;;;18.79;45.41
46710;BME280;32442;51.514;-0.178;2023-02-16T00:50:52;101956.50;;;18.76;45.52
46710;BME280;32442;51.514;-0.178;2023-02-16T00:53:19;101956.78;;;18.79;45.13
46710;BME280;32442;51.514;-0.178;2023-02-16T00:55:46;101958.19;;;18.82;45.12
46710;BME280;32442;51.514;-0.178;2023-02-16T01:00:45;101955.38;;;18.77;45.02
46710;BME280;32442;51.514;-0.178;2023-02-16T01:03:13;101953.16;;;18.79;45.35
46710;BME280;32442;51.514;-0.178;2023-02-16T01:05:41;101953.97;;;18.74;45.27
46710;BME280;32442;51.514;-0.178;2023-02-16T01:08:10;101960.41;;;18.75;45.10
46710;BME280;32442;51.514;-0.178;2023-02-16T01:10:40;101948.38;;;18.74;45.37
46710;BME280;32442;51.514;-0.178;2023-02-16T01:13:10;101952.28;;;18.73;45.10
46710;BME280;32442;51.514;-0.178;2023-02-16T01:15:38;101952.84;;;18.75;45.32
46710;BME280;32442;51.514;-0.178;2023-02-16T01:18:06;101955.91;;;18.74;45.37
46710;BME280;32442;51.514;-0.178;2023-02-16T01:20:33;101957.03;;;18.73;45.24
46710;BME280;32442;51.514;-0.178;2023-02-16T01:23:02;101946.13;;;18.71;45.51
46710;BME280;32442;51.514;-0.178;2023-02-16T01:25:29;101953.69;;;18.71;45.18
46710;BME280;32442;51.514;-0.178;2023-02-16T01:27:56;101948.34;;;18.69;45.48
46710;BME280;32442;51.514;-0.178;2023-02-16T01:30:23;101945.53;;;18.69;45.22
46710;BME280;32442;51.514;-0.178;2023-02-16T01:32:51;101948.34;;;18.69;45.50
46710;BME280;32442;51.514;-0.178;2023-02-16T01:35:19;101947.22;;;18.70;45.06
46710;BME280;32442;51.514;-0.178;2023-02-16T01:37:47;101957.84;;;18.68;45.41
46710;BME280;32442;51.514;-0.178;2023-02-16T01:40:18;101951.09;;;18.64;45.49
46710;BME280;32442;51.514;-0.178;2023-02-16T01:42:48;101953.34;;;18.67;45.47
46710;BME280;32442;51.514;-0.178;2023-02-16T01:45:19;101950.56;;;18.62;45.32
46710;BME280;32442;51.514;-0.178;2023-02-16T01:47:53;101956.44;;;18.65;45.43
46710;BME280;32442;51.514;-0.178;2023-02-16T01:50:22;101948.56;;;18.62;45.47
46710;BME280;32442;51.514;-0.178;2023-02-16T01:55:23;101946.91;;;18.61;45.55
46710;BME280;32442;51.514;-0.178;2023-02-16T01:57:54;101946.31;;;18.59;45.59
46710;BME280;32442;51.514;-0.178;2023-02-16T02:02:51;101949.38;;;18.58;45.43
46710;BME280;32442;51.514;-0.178;2023-02-16T02:07:54;101949.13;;;18.59;45.34
46710;BME280;32442;51.514;-0.178;2023-02-16T02:12:54;101940.97;;;18.58;45.22
46710;BME280;32442;51.514;-0.178;2023-02-16T02:15:22;101935.38;;;18.58;45.40
46710;BME280;32442;51.514;-0.178;2023-02-16T02:17:51;101937.38;;;18.57;45.14
46710;BME280;32442;51.514;-0.178;2023-02-16T02:27:50;101933.72;;;18.57;45.37
46710;BME280;32442;51.514;-0.178;2023-02-16T02:40:21;101934.75;;;18.51;45.56
46710;BME280;32442;51.514;-0.178;2023-02-16T02:45:23;101934.19;;;18.49;45.63
46710;BME280;32442;51.514;-0.178;2023-02-16T02:47:52;101924.97;;;18.48;45.73
46710;BME280;32442;51.514;-0.178;2023-02-16T02:50:22;101922.97;;;18.49;45.55
46710;BME280;32442;51.514;-0.178;2023-02-16T02:53:00;101924.38;;;18.46;45.66
46710;BME280;32442;51.514;-0.178;2023-02-16T02:55:28;101917.94;;;18.46;45.52
46710;BME280;32442;51.514;-0.178;2023-02-16T02:58:00;101907.84;;;18.45;45.63
46710;BME280;32442;51.514;-0.178;2023-02-16T03:03:07;101902.25;;;18.45;45.86
46710;BME280;32442;51.514;-0.178;2023-02-16T03:05:35;101895.81;;;18.44;45.57
46710;BME280;32442;51.514;-0.178;2023-02-16T03:08:06;101894.41;;;18.42;45.56
46710;BME280;32442;51.514;-0.178;2023-02-16T03:10:41;101891.88;;;18.40;45.65
46710;BME280;32442;51.514;-0.178;2023-02-16T03:13:15;101885.19;;;18.41;45.65
46710;BME280;32442;51.514;-0.178;2023-02-16T03:15:44;101879.84;;;18.40;45.94
46710;BME280;32442;51.514;-0.178;2023-02-16T03:18:12;101873.13;;;18.41;45.69
46710;BME280;32442;51.514;-0.178;2023-02-16T03:20:44;101865.03;;;18.39;45.85
46710;BME280;32442;51.514;-0.178;2023-02-16T03:23:14;101863.06;;;18.40;46.05
46710;BME280;32442;51.514;-0.178;2023-02-16T03:25:44;101853.00;;;18.39;45.59
46710;BME280;32442;51.514;-0.178;2023-02-16T03:28:14;101848.78;;;18.36;45.57
46710;BME280;32442;51.514;-0.178;2023-02-16T03:30:47;101851.03;;;18.34;45.82
46710;BME280;32442;51.514;-0.178;2023-02-16T03:33:16;101846.28;;;18.35;45.82
46710;BME280;32442;51.514;-0.178;2023-02-16T03:35:43;101844.28;;;18.35;45.95
46710;BME280;32442;51.514;-0.178;2023-02-16T03:38:11;101834.50;;;18.33;45.98
46710;BME280;32442;51.514;-0.178;2023-02-16T03:40:38;101840.09;;;18.33;45.94
46710;BME280;32442;51.514;-0.178;2023-02-16T03:43:07;101826.09;;;18.33;45.62
46710;BME280;32442;51.514;-0.178;2023-02-16T03:45:38;101831.97;;;18.31;46.08
46710;BME280;32442;51.514;-0.178;2023-02-16T03:48:06;101831.13;;;18.31;45.72
46710;BME280;32442;51.514;-0.178;2023-02-16T03:50:33;101831.69;;;18.33;45.90
46710;BME280;32442;51.514;-0.178;2023-02-16T03:53:01;101836.44;;;18.32;45.75
46710;BME280;32442;51.514;-0.178;2023-02-16T03:55:32;101827.22;;;18.32;46.08
46710;BME280;32442;51.514;-0.178;2023-02-16T03:57:59;101822.72;;;18.31;46.12
46710;BME280;32442;51.514;-0.178;2023-02-16T04:00:26;101830.00;;;18.32;45.95
46710;BME280;32442;51.514;-0.178;2023-02-16T04:02:53;101837.00;;;18.29;45.94
46710;BME280;32442;51.514;-0.178;2023-02-16T04:05:20;101840.66;;;18.30;45.97
46710;BME280;32442;51.514;-0.178;2023-02-16T04:07:47;101847.34;;;18.29;45.74
46710;BME280;32442;51.514;-0.178;2023-02-16T04:10:14;101846.50;;;18.28;46.14
46710;BME280;32442;51.514;-0.178;2023-02-16T04:12:41;101843.69;;;18.28;46.00
46710;BME280;32442;51.514;-0.178;2023-02-16T04:15:09;101844.53;;;18.29;46.06
46710;BME280;32442;51.514;-0.178;2023-02-16T04:17:37;101838.38;;;18.27;45.94
46710;BME280;32442;51.514;-0.178;2023-02-16T04:20:04;101844.53;;;18.29;46.11
46710;BME280;32442;51.514;-0.178;2023-02-16T04:22:32;101829.13;;;18.26;45.84
46710;BME280;32442;51.514;-0.178;2023-02-16T04:24:59;101822.72;;;18.26;46.00
46710;BME280;32442;51.514;-0.178;2023-02-16T04:27:25;101819.94;;;18.26;45.97
46710;BME280;32442;51.514;-0.178;2023-02-16T04:29:52;101822.13;;;18.23;45.95
46710;BME280;32442;51.514;-0.178;2023-02-16T04:32:19;101813.75;;;18.23;46.01
46710;BME280;32442;51.514;-0.178;2023-02-16T04:34:46;101821.03;;;18.25;46.00
46710;BME280;32442;51.514;-0.178;2023-02-16T04:37:13;101812.63;;;18.25;46.07
46710;BME280;32442;51.514;-0.178;2023-02-16T04:39:40;101818.22;;;18.25;45.87
46710;BME280;32442;51.514;-0.178;2023-02-16T04:42:07;101818.75;;;18.21;45.82
46710;BME280;32442;51.514;-0.178;2023-02-16T04:44:34;101817.13;;;18.26;45.84
46710;BME280;32442;51.514;-0.178;2023-02-16T04:47:01;101816.28;;;18.25;45.86
46710;BME280;32442;51.514;-0.178;2023-02-16T04:49:27;101814.00;;;18.22;45.60
46710;BME280;32442;51.514;-0.178;2023-02-16T04:51:54;101814.00;;;18.22;45.78
46710;BME280;32442;51.514;-0.178;2023-02-16T04:54:21;101821.84;;;18.20;45.64
46710;BME280;32442;51.514;-0.178;2023-02-16T04:56:48;101824.34;;;18.21;45.78
46710;BME280;32442;51.514;-0.178;2023-02-16T04:59:15;101817.94;;;18.21;45.98
46710;BME280;32442;51.514;-0.178;2023-02-16T05:01:42;101813.16;;;18.21;45.62
46710;BME280;32442;51.514;-0.178;2023-02-16T05:04:09;101814.56;;;18.19;45.93
46710;BME280;32442;51.514;-0.178;2023-02-16T05:06:37;101818.19;;;18.19;46.06
46710;BME280;32442;51.514;-0.178;2023-02-16T05:09:04;101809.81;;;18.19;45.60
46710;BME280;32442;51.514;-0.178;2023-02-16T05:11:32;101803.38;;;18.19;45.64
46710;BME280;32442;51.514;-0.178;2023-02-16T05:14:02;101803.63;;;18.17;45.55
46710;BME280;32442;51.514;-0.178;2023-02-16T05:16:32;101802.78;;;18.17;45.96
46710;BME280;32442;51.514;-0.178;2023-02-16T05:18:58;101794.13;;;18.18;45.93
46710;BME280;32442;51.514;-0.178;2023-02-16T05:21:25;101785.19;;;18.21;45.79
46710;BME280;32442;51.514;-0.178;2023-02-16T05:23:57;101773.19;;;18.26;45.64
46710;BME280;32442;51.514;-0.178;2023-02-16T05:26:24;101777.16;;;18.30;45.49
46710;BME280;32442;51.514;-0.178;2023-02-16T05:28:51;101767.09;;;18.34;45.80
46710;BME280;32442;51.514;-0.178;2023-02-16T05:31:18;101767.38;;;18.38;45.64
46710;BME280;32442;51.514;-0.178;2023-02-16T05:33:45;101768.50;;;18.42;45.34
46710;BME280;32442;51.514;-0.178;2023-02-16T05:36:12;101767.41;;;18.48;45.37
46710;BME280;32442;51.514;-0.178;2023-02-16T05:38:38;101773.88;;;18.53;45.32
46710;BME280;32442;51.514;-0.178;2023-02-16T05:41:05;101778.41;;;18.59;45.52
46710;BME280;32442;51.514;-0.178;2023-02-16T05:43:32;101783.75;;;18.66;45.31
46710;BME280;32442;51.514;-0.178;2023-02-16T05:45:59;101788.22;;;18.72;45.35
46710;BME280;32442;51.514;-0.178;2023-02-16T05:48:26;101792.47;;;18.80;45.30
46710;BME280;32442;51.514;-0.178;2023-02-16T05:50:53;101786.56;;;18.86;44.79
46710;BME280;32442;51.514;-0.178;2023-02-16T05:53:20;101784.38;;;18.93;45.18
46710;BME280;32442;51.514;-0.178;2023-02-16T05:55:47;101781.59;;;18.98;44.97
46710;BME280;32442;51.514;-0.178;2023-02-16T05:58:14;101776.81;;;19.04;45.03
46710;BME280;32442;51.514;-0.178;2023-02-16T06:00:41;101776.53;;;19.10;44.66
46710;BME280;32442;51.514;-0.178;2023-02-16T06:03:08;101768.16;;;19.16;44.81
46710;BME280;32442;51.514;-0.178;2023-02-16T06:05:35;101758.91;;;19.20;44.78
46710;BME280;32442;51.514;-0.178;2023-02-16T06:08:02;101760.88;;;19.25;44.57
46710;BME280;32442;51.514;-0.178;2023-02-16T06:10:28;101761.72;;;19.30;44.16
46710;BME280;32442;51.514;-0.178;2023-02-16T06:12:55;101766.47;;;19.35;44.50
46710;BME280;32442;51.514;-0.178;2023-02-16T06:15:22;101763.66;;;19.40;44.31
46710;BME280;32442;51.514;-0.178;2023-02-16T06:17:49;101762.03;;;19.44;44.10
46710;BME280;32442;51.514;-0.178;2023-02-16T06:20:16;101766.78;;;19.48;43.90
46710;BME280;32442;51.514;-0.178;2023-02-16T06:22:43;101768.75;;;19.53;44.15
46710;BME280;32442;51.514;-0.178;2023-02-16T06:25:10;101763.41;;;19.57;43.99
46710;BME280;32442;51.514;-0.178;2023-02-16T06:27:37;101764.25;;;19.62;44.13
46710;BME280;32442;51.514;-0.178;2023-02-16T06:30:05;101759.75;;;19.66;43.96
46710;BME280;32442;51.514;-0.178;2023-02-16T06:32:34;101758.91;;;19.71;43.91
46710;BME280;32442;51.514;-0.178;2023-02-16T06:35:01;101755.53;;;19.74;43.82
46710;BME280;32442;51.514;-0.178;2023-02-16T06:37:28;101751.03;;;19.78;43.53
46710;BME280;32442;51.514;-0.178;2023-02-16T06:39:55;101748.22;;;19.83;43.83
46710;BME280;32442;51.514;-0.178;2023-02-16T06:42:22;101740.06;;;19.86;43.56
46710;BME280;32442;51.514;-0.178;2023-02-16T06:44:48;101745.13;;;19.89;43.12
46710;BME280;32442;51.514;-0.178;2023-02-16T06:47:15;101743.44;;;19.93;43.39
46710;BME280;32442;51.514;-0.178;2023-02-16T06:49:42;101743.41;;;19.98;43.62
46710;BME280;32442;51.514;-0.178;2023-02-16T06:52:09;101757.69;;;20.02;43.33
46710;BME280;32442;51.514;-0.178;2023-02-16T06:54:36;101751.25;;;20.07;43.47
46710;BME280;32442;51.514;-0.178;2023-02-16T06:57:03;101746.72;;;20.11;43.14
46710;BME280;32442;51.514;-0.178;2023-02-16T06:59:30;101759.91;;;20.15;43.40
46710;BME280;32442;51.514;-0.178;2023-02-16T07:01:57;101750.06;;;20.18;42.94
46710;BME280;32442;51.514;-0.178;2023-02-16T07:04:23;101752.84;;;20.23;43.04
46710;BME280;32442;51.514;-0.178;2023-02-16T07:06:50;101745.84;;;20.25;42.97
46710;BME280;32442;51.514;-0.178;2023-02-16T07:09:17;101746.09;;;20.29;42.84
46710;BME280;32442;51.514;-0.178;2023-02-16T07:11:44;101744.41;;;20.33;43.11
46710;BME280;32442;51.514;-0.178;2023-02-16T07:14:11;101750.28;;;20.36;43.02
46710;BME280;32442;51.514;-0.178;2023-02-16T07:16:38;101749.75;;;20.39;42.71
46710;BME280;32442;51.514;-0.178;2023-02-16T07:19:05;101754.50;;;20.44;42.56
46710;BME280;32442;51.514;-0.178;2023-02-16T07:21:32;101749.41;;;20.46;42.71
46710;BME280;32442;51.514;-0.178;2023-02-16T07:24:00;101750.50;;;20.50;42.27
46710;BME280;32442;51.514;-0.178;2023-02-16T07:26:27;101739.53;;;20.54;42.30
46710;BME280;32442;51.514;-0.178;2023-02-16T07:28:54;101741.22;;;20.55;42.25
46710;BME280;32442;51.514;-0.178;2023-02-16T07:31:21;101726.06;;;20.56;42.11
46710;BME280;32442;51.514;-0.178;2023-02-16T07:33:52;101724.63;;;20.58;42.36
46710;BME280;32442;51.514;-0.178;2023-02-16T07:36:19;101734.97;;;20.63;42.08
46710;BME280;32442;51.514;-0.178;2023-02-16T07:38:46;101733.03;;;20.63;41.77
46710;BME280;32442;51.514;-0.178;2023-02-16T07:41:13;101733.03;;;20.63;42.04
46710;BME280;32442;51.514;-0.178;2023-02-16T07:43:40;101731.91;;;20.64;41.85
46710;BME280;32442;51.514;-0.178;2023-02-16T07:46:10;101728.50;;;20.67;41.35
46710;BME280;32442;51.514;-0.178;2023-02-16T07:48:40;101737.22;;;20.66;41.38
46710;BME280;32442;51.514;-0.178;2023-02-16T07:51:07;101742.84;;;20.66;41.15
46710;BME280;32442;51.514;-0.178;2023-02-16T07:53:34;101743.38;;;20.68;41.27
46710;BME280;32442;51.514;-0.178;2023-02-16T07:56:01;101751.81;;;20.68;40.95
46710;BME280;32442;51.514;-0.178;2023-02-16T07:58:28;101750.97;;;20.67;40.87
46710;BME280;32442;51.514;-0.178;2023-02-16T08:00:56;101749.31;;;20.66;41.32
46710;BME280;32442;51.514;-0.178;2023-02-16T08:03:31;101743.38;;;20.68;41.35
46710;BME280;32442;51.514;-0.178;2023-02-16T08:05:59;101749.00;;;20.68;41.32
46710;BME280;32442;51.514;-0.178;2023-02-16T08:08:26;101750.97;;;20.67;41.10
46710;BME280;32442;51.514;-0.178;2023-02-16T08:10:53;101752.97;;;20.67;41.26
46710;BME280;32442;51.514;-0.178;2023-02-16T08:13:20;101743.38;;;20.68;40.72
46710;BME280;32442;51.514;-0.178;2023-02-16T08:15:47;101750.44;;;20.65;41.07
46710;BME280;32442;51.514;-0.178;2023-02-16T08:18:14;101753.25;;;20.65;41.03
46710;BME280;32442;51.514;-0.178;2023-02-16T08:20:41;101747.63;;;20.65;40.67
46710;BME280;32442;51.514;-0.178;2023-02-16T08:23:28;101745.94;;;20.64;40.71
46710;BME280;32442;51.514;-0.178;2023-02-16T08:25:55;101754.63;;;20.63;40.86
46710;BME280;32442;51.514;-0.178;2023-02-16T08:28:24;101751.56;;;20.59;40.65
46710;BME280;32442;51.514;-0.178;2023-02-16T08:30:54;101743.16;;;20.59;41.21
46710;BME280;32442;51.514;-0.178;2023-02-16T08:33:21;101746.81;;;20.60;40.69
46710;BME280;32442;51.514;-0.178;2023-02-16T08:35:48;101751.91;;;20.53;41.37
46710;BME280;32442;51.514;-0.178;2023-02-16T08:38:15;101747.69;;;20.50;41.34
46710;BME280;32442;51.514;-0.178;2023-02-16T08:40:46;101740.69;;;20.53;40.99
46710;BME280;32442;51.514;-0.178;2023-02-16T08:43:14;101739.59;;;20.49;40.95
46710;BME280;32442;51.514;-0.178;2023-02-16T08:45:43;101737.34;;;20.46;41.24
46710;BME280;32442;51.514;-0.178;2023-02-16T08:48:10;101737.06;;;20.47;41.56
46710;BME280;32442;51.514;-0.178;2023-02-16T08:50:41;101734.84;;;20.44;41.27
46710;BME280;32442;51.514;-0.178;2023-02-16T08:53:08;101737.06;;;20.42;41.58
46710;BME280;32442;51.514;-0.178;2023-02-16T08:55:35;101735.97;;;20.43;41.41
46710;BME280;32442;51.514;-0.178;2023-02-16T08:58:04;101730.91;;;20.40;41.65
46710;BME280;32442;51.514;-0.178;2023-02-16T09:00:31;101722.53;;;20.35;41.47
46710;BME280;32442;51.514;-0.178;2023-02-16T09:03:01;101714.13;;;20.35;41.82
46710;BME280;32442;51.514;-0.178;2023-02-16T09:05:29;101725.91;;;20.32;41.91
46710;BME280;32442;51.514;-0.178;2023-02-16T09:07:56;101728.69;;;20.27;41.93
46710;BME280;32442;51.514;-0.178;2023-02-16T09:10:24;101725.91;;;20.22;41.91
46710;BME280;32442;51.514;-0.178;2023-02-16T09:12:51;101720.59;;;20.20;42.29
46710;BME280;32442;51.514;-0.178;2023-02-16T09:15:18;101723.16;;;20.17;42.54
46710;BME280;32442;51.514;-0.178;2023-02-16T09:17:46;101729.31;;;20.14;42.64
46710;BME280;32442;51.514;-0.178;2023-02-16T09:20:13;101731.59;;;20.12;42.82
46710;BME280;32442;51.514;-0.178;2023-02-16T09:22:42;101728.47;;;20.13;42.55
46710;BME280;32442;51.514;-0.178;2023-02-16T09:25:11;101724.56;;;20.09;42.54
46710;BME280;32442;51.514;-0.178;2023-02-16T09:27:38;101724.56;;;20.09;42.99
46710;BME280;32442;51.514;-0.178;2023-02-16T09:30:06;101727.09;;;20.11;42.90
46710;BME280;32442;51.514;-0.178;2023-02-16T09:32:33;101726.53;;;20.04;43.14
46710;BME280;32442;51.514;-0.178;2023-02-16T09:35:00;101724.56;;;20.04;43.20
46710;BME280;32442;51.514;-0.178;2023-02-16T09:37:27;101733.31;;;20.03;42.87
46710;BME280;32442;51.514;-0.178;2023-02-16T09:39:54;101723.22;;;19.96;43.41
46710;BME280;32442;51.514;-0.178;2023-02-16T09:42:24;101718.16;;;19.98;43.42
46710;BME280;32442;51.514;-0.178;2023-02-16T09:47:27;101719.56;;;20.01;43.09
46710;BME280;32442;51.514;-0.178;2023-02-16T09:49:58;101725.44;;;19.99;43.05
46710;BME280;32442;51.514;-0.178;2023-02-16T09:54:57;101719.84;;;19.94;43.51
46710;BME280;32442;51.514;-0.178;2023-02-16T09:59:58;101714.56;;;19.88;43.50
46710;BME280;32442;51.514;-0.178;2023-02-16T10:09:57;101709.53;;;19.80;44.09
46710;BME280;32442;51.514;-0.178;2023-02-16T10:12:25;101726.88;;;19.87;43.52
46710;BME280;32442;51.514;-0.178;2023-02-16T10:14:55;101723.25;;;19.81;43.73
46710;BME280;32442;51.514;-0.178;2023-02-16T10:19:55;101713.44;;;19.79;43.83
46710;BME280;32442;51.514;-0.178;2023-02-16T10:24:56;101718.50;;;19.72;44.05
46710;BME280;32442;51.514;-0.178;2023-02-16T10:27:26;101713.19;;;19.75;44.09
46710;BME280;32442;51.514;-0.178;2023-02-16T10:29:58;101714.59;;;19.73;44.35
46710;BME280;32442;51.514;-0.178;2023-02-16T10:32:27;101705.91;;;19.69;44.24
46710;BME280;32442;51.514;-0.178;2023-02-16T10:35:08;101710.09;;;19.72;44.40
46710;BME280;32442;51.514;-0.178;2023-02-16T10:42:37;101720.22;;;19.63;44.80
46710;BME280;32442;51.514;-0.178;2023-02-16T10:47:37;101716.59;;;19.62;44.82
46710;BME280;32442;51.514;-0.178;2023-02-16T10:50:09;101716.28;;;19.59;44.57
46710;BME280;32442;51.514;-0.178;2023-02-16T10:52:41;101719.09;;;19.59;44.96
46710;BME280;32442;51.514;-0.178;2023-02-16T10:55:10;101732.28;;;19.58;44.80
46710;BME280;32442;51.514;-0.178;2023-02-16T10:57:38;101726.13;;;19.56;44.67
46710;BME280;32442;51.514;-0.178;2023-02-16T11:00:06;101731.47;;;19.52;45.01
46710;BME280;32442;51.514;-0.178;2023-02-16T11:02:37;101728.09;;;19.50;45.01
46710;BME280;32442;51.514;-0.178;2023-02-16T11:07:37;101718.28;;;19.53;44.93
46710;BME280;32442;51.514;-0.178;2023-02-16T11:10:19;101716.88;;;19.45;45.13
46710;BME280;32442;51.514;-0.178;2023-02-16T11:12:49;101717.16;;;19.49;44.78
46710;BME280;32442;51.514;-0.178;2023-02-16T11:15:21;101725.28;;;19.45;45.25
46710;BME280;32442;51.514;-0.178;2023-02-16T11:22:50;101708.78;;;19.44;44.95
46710;BME280;32442;51.514;-0.178;2023-02-16T11:30:17;101708.75;;;19.39;45.50
46710;BME280;32442;51.514;-0.178;2023-02-16T11:32:49;101707.63;;;19.35;45.61
46710;BME280;32442;51.514;-0.178;2023-02-16T11:35:17;101706.22;;;19.37;45.37
46710;BME280;32442;51.514;-0.178;2023-02-16T11:37:44;101704.00;;;19.34;45.59
46710;BME280;32442;51.514;-0.178;2023-02-16T11:42:44;101695.00;;;19.32;45.46
46710;BME280;32442;51.514;-0.178;2023-02-16T11:47:44;101689.69;;;19.31;45.87
46710;BME280;32442;51.514;-0.178;2023-02-16T11:52:46;101692.78;;;19.24;45.65
46710;BME280;32442;51.514;-0.178;2023-02-16T11:57:45;101695.59;;;19.29;45.61
46710;BME280;32442;51.514;-0.178;2023-02-16T12:07:47;101692.50;;;19.21;46.30
46710;BME280;32442;51.514;-0.178;2023-02-16T12:22:59;101675.72;;;19.16;46.51
46710;BME280;32442;51.514;-0.178;2023-02-16T12:38:09;101658.91;;;19.10;46.38
46710;BME280;32442;51.514;-0.178;2023-02-16T12:45:43;101644.31;;;19.08;46.88
46710;BME280;32442;51.514;-0.178;2023-02-16T12:50:43;101648.28;;;19.07;46.88
46710;BME280;32442;51.514;-0.178;2023-02-16T12:53:17;101658.63;;;19.07;47.01
46710;BME280;32442;51.514;-0.178;2023-02-16T12:55:49;101662.53;;;19.06;46.87
46710;BME280;32442;51.514;-0.178;2023-02-16T13:00:53;101651.06;;;19.02;47.24
46710;BME280;32442;51.514;-0.178;2023-02-16T13:05:59;101649.94;;;19.03;47.28
46710;BME280;32442;51.514;-0.178;2023-02-16T13:08:32;101645.47;;;19.02;47.14
46710;BME280;32442;51.514;-0.178;2023-02-16T13:11:09;101645.47;;;19.02;47.39
46710;BME280;32442;51.514;-0.178;2023-02-16T13:13:38;101651.06;;;19.02;46.95
46710;BME280;32442;51.514;-0.178;2023-02-16T13:16:10;101645.47;;;19.02;46.99
46710;BME280;32442;51.514;-0.178;2023-02-16T13:18:55;101642.09;;;19.00;47.55
46710;BME280;32442;51.514;-0.178;2023-02-16T13:34:00;101647.44;;;18.97;47.63
46710;BME280;32442;51.514;-0.178;2023-02-16T13:36:36;101642.38;;;18.99;47.57
46710;BME280;32442;51.514;-0.178;2023-02-16T13:51:48;101645.16;;;18.99;47.60
46710;BME280;32442;51.514;-0.178;2023-02-16T13:56:46;101630.91;;;18.95;47.83
46710;BME280;32442;51.514;-0.178;2023-02-16T14:01:44;101640.13;;;18.96;47.73
46710;BME280;32442;51.514;-0.178;2023-02-16T14:19:27;101628.66;;;18.92;48.14
46710;BME280;32442;51.514;-0.178;2023-02-16T14:21:55;101625.28;;;18.90;48.09
46710;BME280;32442;51.514;-0.178;2023-02-16T14:26:55;101620.84;;;18.89;48.19
46710;BME280;32442;51.514;-0.178;2023-02-16T14:29:26;101624.19;;;18.91;48.14
46710;BME280;32442;51.514;-0.178;2023-02-16T14:34:27;101615.78;;;18.91;48.52
46710;BME280;32442;51.514;-0.178;2023-02-16T14:39:26;101628.41;;;18.89;48.62
46710;BME280;32442;51.514;-0.178;2023-02-16T14:42:05;101629.25;;;18.89;48.76
46710;BME280;32442;51.514;-0.178;2023-02-16T14:47:09;101630.91;;;18.90;48.62
46710;BME280;32442;51.514;-0.178;2023-02-16T14:57:15;101632.03;;;18.89;48.78
46710;BME280;32442;51.514;-0.178;2023-02-16T15:04:46;101614.09;;;18.90;48.70
46710;BME280;32442;51.514;-0.178;2023-02-16T15:07:13;101611.28;;;18.90;49.06
46710;BME280;32442;51.514;-0.178;2023-02-16T15:09:41;101613.56;;;18.88;48.87
46710;BME280;32442;51.514;-0.178;2023-02-16T15:12:10;101609.91;;;18.88;49.16
46710;BME280;32442;51.514;-0.178;2023-02-16T15:14:46;101603.75;;;18.91;48.97
46710;BME280;32442;51.514;-0.178;2023-02-16T15:19:46;101609.06;;;18.87;48.83
46710;BME280;32442;51.514;-0.178;2023-02-16T15:27:19;101602.34;;;18.88;49.25
46710;BME280;32442;51.514;-0.178;2023-02-16T15:32:18;101618.84;;;18.90;48.83
46710;BME280;32442;51.514;-0.178;2023-02-16T15:34:46;101620.00;;;18.89;49.03
46710;BME280;32442;51.514;-0.178;2023-02-16T15:39:48;101614.66;;;18.87;48.90
46710;BME280;32442;51.514;-0.178;2023-02-16T15:42:35;101612.97;;;18.86;48.86
46710;BME280;32442;51.514;-0.178;2023-02-16T15:47:36;101614.09;;;18.90;48.82
46710;BME280;32442;51.514;-0.178;2023-02-16T15:50:10;101605.16;;;18.88;48.92
46710;BME280;32442;51.514;-0.178;2023-02-16T15:52:38;101605.69;;;18.85;49.05
46710;BME280;32442;51.514;-0.178;2023-02-16T15:55:06;101606.53;;;18.86;49.12
46710;BME280;32442;51.514;-0.178;2023-02-16T15:57:37;101599.56;;;18.83;49.43
46710;BME280;32442;51.514;-0.178;2023-02-16T16:00:13;101605.16;;;18.83;49.53
46710;BME280;32442;51.514;-0.178;2023-02-16T16:02:46;101604.03;;;18.84;49.30
46710;BME280;32442;51.514;-0.178;2023-02-16T16:07:46;101606.28;;;18.82;49.20
46710;BME280;32442;51.514;-0.178;2023-02-16T16:10:15;101602.94;;;18.80;49.21
46710;BME280;32442;51.514;-0.178;2023-02-16T16:12:47;101604.03;;;18.84;49.14
46710;BME280;32442;51.514;-0.178;2023-02-16T16:15:18;101608.53;;;18.80;49.50
46710;BME280;32442;51.514;-0.178;2023-02-16T16:17:50;101600.41;;;18.79;49.62
46710;BME280;32442;51.514;-0.178;2023-02-16T16:27:53;101599.56;;;18.78;49.43
46710;BME280;32442;51.514;-0.178;2023-02-16T16:35:21;101606.84;;;18.74;49.62
46710;BME280;32442;51.514;-0.178;2023-02-16T16:37:50;101603.19;;;18.74;49.30
46710;BME280;32442;51.514;-0.178;2023-02-16T16:40:21;101611.03;;;18.77;49.24
46710;BME280;32442;51.514;-0.178;2023-02-16T16:47:54;101616.94;;;18.70;49.41